메인 페이지
METAR-TAF:

METAR-TAF

공항 :

니아메, 니제르

위도: 13-29N, 경도: 002-10E, 고도: 223m

현재 날씨관측

예보는 53분 전, 13:00시(UTC)에 발표되었습니다.
남남동6kt풍과 남남서풍을 오가는
온도 36°C
습도 6%
기압 1008 hPa
시정: 1600m
황사

METAR: DRRN 191300Z 15006KT 090V200 1600 DU NSC 36/M07 Q1008 NOSIG

시각: 14:53 (13:53 UTC)

예보

예보는 2 시간 53분 전, 11:00시(UTC)에 발표되었습니다.
예보 대상 시간: 19일 12시부터 20일 18시까지 (UTC)
동남동12kt
시정: 1200m
황사
전환 중
19일 13시부터 19일 15시까지 (UTC)
동북동8kt
시정: 2500m
전환 중
19일 21시부터 19일 23시까지 (UTC)
시정: 4000m

TAF: DRRN 191100Z 1912/2018 11012KT 1200 DU NSC BECMG 1913/1915 06008KT 2500 BECMG 1921/1923 4000

4,000개 이상의 공항 관측 자료 및 예보 (METAR 및 TAF 보고).

지도상에서 검색 가능한 기상관측소가 노란 점과 빨간 점으로 표시되어 있습니다.

기상관측소 명을 보려면 표시 위로 마우스를 이동하세요.

날씨 관측과 예보를 보려면 클릭하세요.

지도 변경 : 확대하려면 엑스 표시가 있는 녹색 버튼, 축소하려면 빼기 표시가 있는 녹색 버튼, 다음 페이지의 지도를 보려면 녹색 화살표를 클릭하세요.


METAR-TAF: